Deva — A8OK3 — position and weather

sailwx.info

Track history (hours):
 
Tides and Currents Weather Stations Pressure Air Temp Water Temp Dewpoint Dewpoint Depression Visibility Wind Speed Wind Dir Waves Ship Positions

Deva

Last reported at 2016-Feb-02 10:26 UTC. Time now 2016-Feb-09 05:50 UTC.
Position N 32°00' E 034°32'.

Length 259 m; draft 11.3 m.

Type: Ship (hazmat cat A). MMSI: 636013644.

Date/timePositionNaut miles runAvg speedWind from/ knotsBaromVisibWave heightAir tempDewpointWater temp
2016-Feb-02 10:26N 32°00' E 034°32'1112.7
2016-Feb-02 09:34N 32°11' E 034°35'1212.2
2016-Feb-02 08:33N 32°22' E 034°40'1212.5
2016-Feb-02 07:34N 32°34' E 034°44'1212.0
2016-Feb-02 06:34N 32°46' E 034°47'10 9.7
2016-Feb-02 05:33N 32°53' E 034°55'1 0.0
2016-Feb-01 03:30N 32°52' E 034°56'2 1.5
2016-Feb-01 02:28N 32°53' E 034°54'1112.2
2016-Feb-01 01:33N 32°56' E 034°42'  
Track history (hours):
 
Tides and Currents Weather Stations Pressure Air Temp Water Temp Dewpoint Dewpoint Depression Visibility Wind Speed Wind Dir Waves Ship Positions

Deva

Last reported at 2016-Feb-02 10:26 UTC. Time now 2016-Feb-09 05:50 UTC.
Position N 32°00' E 034°32'.

Length 259 m; draft 11.3 m.

Type: Ship (hazmat cat A). MMSI: 636013644.

Date/timePositionNaut miles runAvg speedWind from/ knotsBaromVisibWave heightAir tempDewpointWater temp
2016-Feb-02 10:26N 32°00' E 034°32'1112.7
2016-Feb-02 09:34N 32°11' E 034°35'1212.2
2016-Feb-02 08:33N 32°22' E 034°40'1212.5
2016-Feb-02 07:34N 32°34' E 034°44'1212.0
2016-Feb-02 06:34N 32°46' E 034°47'10 9.7
2016-Feb-02 05:33N 32°53' E 034°55'1 0.0
2016-Feb-01 03:30N 32°52' E 034°56'2 1.5
2016-Feb-01 02:28N 32°53' E 034°54'1112.2
2016-Feb-01 01:33N 32°56' E 034°42'  

Dump ship's entire track history